Welkom op de website van Weerstation Hoek van Holland.

Onweer radar Meer informatie blitzortung!


Regen radar Meer informatie rain snow radar



METAR rapporten vliegvelden

   
EHRD - Rotterdam International Airport, NL
Afstand tot: Oost 31 km
Gewijzigd: 28-02-2020 19:25
Wat regen mogelijk, Grotendeels bewolkt  
Wat regen mogelijk, Grotendeels bewolkt  
   Wind: Zuiden 29.6 km/h
Wind: Zuiden 29.6 km/h
Temperatuur: 4°C
Voelt als: -1°C
Dauwpunt: 3°C
Vochtigheid: 93%
Barometer: 1003 hPa
Bewolking: Mostly Cloudy
Zicht: 5 km
Bewolking: Licht bewolkt 700 ft,
Gedeeltelijk bewolkt 800 ft,
Grotendeels bewolkt 1000 ft
EHRD 281825Z AUTO 17016KT 140V200 5000 -RA FEW007 SCT008 BKN010 04/03 Q1003 TEMPO BKN008
EHAM - Amsterdam Schiphol, NL
Afstand tot: Noord 17 km
Gewijzigd: 28-02-2020 19:25
Wat regen mogelijk, Grotendeels bewolkt  
Wat regen mogelijk, Grotendeels bewolkt  
   Wind: ZZO 38.9 km/h
Wind: ZZO 38.9 km/h
Temperatuur: 3°C
Voelt als: -3°C
Dauwpunt: 2°C
Vochtigheid: 93%
Barometer: 1002 hPa
Bewolking: Mostly Cloudy
Zicht: meer dan 10 km
Bewolking: Licht bewolkt 600 ft,
Grotendeels bewolkt 900 ft,
Grotendeels bewolkt 1400 ft
EHAM 281825Z 15021KT 9999 -RA FEW006 BKN009 BKN014 03/02 Q1002 BECMG 6000 RA BKN010
EBAW - Antwerpen/Deurne, B
Afstand tot: Zuid 138 km
Gewijzigd: 28-02-2020 19:20
Wat regen mogelijk, Grotendeels bewolkt  
Wat regen mogelijk, Grotendeels bewolkt  
   Wind: Zuiden 25.9 km/h
Wind: Zuiden 25.9 km/h
Temperatuur: 5°C
Voelt als: 1°C
Dauwpunt: 4°C
Vochtigheid: 93%
Barometer: 1005 hPa
Bewolking: Mostly Cloudy
Zicht: 8 km
Bewolking: Licht bewolkt 500 ft,
Grotendeels bewolkt 1200 ft
EBAW 281820Z 19014KT 8000 -RA FEW005 BKN012 05/04 Q1005 TEMPO 17015G25KT BKN007
EHEH - Eindhoven, NL
Afstand tot: OZO 140 km
Gewijzigd: 28-02-2020 19:25
Wat regen mogelijk, Grotendeels bewolkt  
Wat regen mogelijk, Grotendeels bewolkt  
   Wind: ZZO 27.8 km/h
Wind: ZZO 27.8 km/h
Temperatuur: 4°C
Voelt als: -1°C
Dauwpunt: 2°C
Vochtigheid: 87%
Barometer: 1005 hPa
Bewolking: Mostly Cloudy
Zicht: meer dan 10 km
Bewolking: Licht bewolkt 1500 ft,
Gedeeltelijk bewolkt 2000 ft,
Grotendeels bewolkt 2400 ft
EHEH 281825Z AUTO 16015KT 120V200 9999 -RA FEW015 SCT020 BKN024 04/02 Q1005 WHT 19014G30KT 9999 RA SCT012 OVC015 TEMPO 4000 DZRA SCT007 OVC012
  

Script ontwikkeld door  Saratoga-weather.org Aangepast voor de template door  Weerstation Leuven

Apparatuur in gebruik:

Weerstation
Davis VP2

Weerprogramma
Meteobridge

Weercomputer
meteobridge met meteostick

Webleverancier
Strato

Davis VP2

Meteobridge

meteobridge met meteostick

Strato